Página principal
METAR-TAF:

METAR-TAF

Aeroportos :

Aeroporto Internacional de Dubai

Dubai, Emirados Árabes Unidos

latitude: 25-15-10N, longitude: 055-21-52E, altura: 8 m

Observação actual do tempo

O boletim foi feito há 1 hora e 6 minutos, às 02:00 UTC
Vento 6 kt de sul, variando entre sudeste e su-sudoeste
Temperatura 29°C
Humidade 79%
Pressão 1000 hPa
Visibilidade: 6000 m

METAR: OMDB 240200Z 17006KT 140V200 6000 NSC 29/25 Q1000 NOSIG

Hora: 07:06 (03:06 UTC)

Previsão

O boletim foi feito há 4 horas e 13 minutos, às 22:53 UTC
Previsão válida de 24 às 00 UTC a 25 às 06 UTC
Vento 5 kt de su-sudoeste
Visibilidade: 8000 m
Tornando-se
de 24 às 05 UTC a 24 às 07 UTC
Vento 12 kt de oeste
Tornando-se
de 24 às 18 UTC a 24 às 20 UTC
Vento 5 kt de sul
Tornando-se
de 25 às 05 UTC a 25 às 06 UTC
Vento 10 kt de oeste

TAF: OMDB 232253Z 2400/2506 20005KT 8000 NSC BECMG 2405/2407 28012KT BECMG 2418/2420 18005KT BECMG 2505/2506 28010KT

Observações e previsões do tempo de mais de 4000 aeroportos (mensagens METAR e TAF).

As estações disponíveis são os pontos amarelos e vermelhos sobre o mapa.

Mova o rato sobre o mapa para ver o nome da estação.

Depois clique no ponto para visualizar as observações e previsões meteorológicas.

Para alterar o mapa : clique nos botões verdes com uma cruz preta para aumentar o zoom; no botão verde com uma pitada de zoom; ou nas setas verdes para mapas adjacentes.


METAR-TAF: